Fuzhou Changle International Airport
ZSFZ : now visible

Airfield :











YOU CAN JOIN US ON...

 
LOGIN :

Register | Disclaimer

   EN    FR    IT 

 









Legend :    VFR   Marginal VFR   IFR   Intensive IFR   Very Intensive IFR
Visi :
Ceiling :
>= 8 km
>= 3000ft
5 to 8 km
1000 to 3000 ft
1500m to 5 km
500 to 1000 ft
800 to 1500m
200 to 500 ft
< 800m
< 200 ft
Symbols :   Thunderstorms  Fog  Heavy snow  Heavy precipitations  Wind > 20 kt






- Airport Elevation : 46 ft
- IATA code : FOC


ZSFZ - Fuzhou Changle International

CURRENT METAR :
  • 140800Z 03006MPS 9999 BKN046 18/12 Q1023 NOSIG

EXPIRED METARs :
  • 140700Z 03006MPS 9999 FEW023 BKN046 19/11 Q1023 NOSIG
  • 140600Z 03005MPS 9999 BKN046 20/10 Q1023 NOSIG

TAF TAF ZSFZ
Valid from the 14 at 06:00 until the 15 at 06:00 UTC


140306Z 1406/1506 03003MPS 5000 BR BKN015 TX19/1407Z TN11/1421Z



MET'MAP, your aeronautical weather chart ! - Copyright ORBIFLY December 2007 - Disclaimer

ORBIFLY MET'MAP TEAM :

Programming & Development : Alexandra Zaïnal
Concept & original design : Baudouin d'Aumeries
Assistance for programming : Marc-Olivier Méhu
Technical & hardware support : Manuel Goepfert

Contact : metmap@orbifly.com




SOURCES & CREDITS :

   NOAA       Earth
Advisory